REU9935 FMEE-OEJN
Flight info
| Callsign | REU9935 |
|---|---|
| Flight time | 5h 24m |
| Altitude | 36000 |
| Route | UVENA2N UVENA UN304 GEPAR/N0488F380 UN304 MOGDU UR775 SOLUL R775 ALNAB UR775 MANDA R775 PURAD M999 LOVIL B544 BOSUT |
| Aircraft | B77W/H-SDE1E2E3FGHIJ2J3J4J5M1RWXY/LB1D1 |
Departure
| Time | 2026-04-25 05:40 |
|---|---|
| Airport | Roland Garros Airport (FMEE) |
Arrival
| Time | 2026-04-25 11:05 |
|---|---|
| Airport | King Abdulaziz International Airport (OEJN) |
| Time | Latitude | Longitude | Altitude | Speed | Heading |
|---|---|---|---|---|---|
| 2026-04-25 05:03 | -20.89105 | 55.51295 | 40 ft | 0 kts | 211° |
| 2026-04-25 05:11 | -20.89104 | 55.51295 | 66 ft | 0 kts | 211° |
| 2026-04-25 05:22 | -20.89104 | 55.51296 | 66 ft | 0 kts | 211° |
| 2026-04-25 05:30 | -20.89096 | 55.51301 | 57 ft | 3 kts | 215° |
| 2026-04-25 05:31 | -20.89081 | 55.51314 | 62 ft | 3 kts | 228° |
| 2026-04-25 05:31 | -20.89069 | 55.51329 | 57 ft | 2 kts | 244° |
| 2026-04-25 05:31 | -20.89062 | 55.51348 | 57 ft | 3 kts | 261° |
| 2026-04-25 05:31 | -20.89061 | 55.51367 | 58 ft | 3 kts | 279° |
| 2026-04-25 05:32 | -20.89066 | 55.51386 | 58 ft | 3 kts | 297° |
| 2026-04-25 05:32 | -20.89069 | 55.51393 | 58 ft | 6 kts | 301° |
| 2026-04-25 05:35 | -20.89063 | 55.51382 | 58 ft | 4 kts | 302° |
| 2026-04-25 05:35 | -20.89041 | 55.51344 | 57 ft | 7 kts | 302° |
| 2026-04-25 05:35 | -20.89019 | 55.51300 | 59 ft | 7 kts | 298° |
| 2026-04-25 05:36 | -20.88992 | 55.51242 | 55 ft | 11 kts | 297° |
| 2026-04-25 05:36 | -20.88971 | 55.51203 | 58 ft | 4 kts | 315° |
| 2026-04-25 05:36 | -20.88940 | 55.51183 | 56 ft | 7 kts | 334° |
| 2026-04-25 05:36 | -20.88877 | 55.51159 | 61 ft | 12 kts | 338° |
| 2026-04-25 05:37 | -20.88791 | 55.51131 | 53 ft | 14 kts | 340° |
| 2026-04-25 05:37 | -20.88712 | 55.51063 | 52 ft | 15 kts | 292° |
| 2026-04-25 05:37 | -20.88699 | 55.50949 | 51 ft | 17 kts | 281° |
| 2026-04-25 05:37 | -20.88668 | 55.50820 | 50 ft | 19 kts | 283° |
| 2026-04-25 05:38 | -20.88644 | 55.50696 | 50 ft | 13 kts | 282° |
| 2026-04-25 05:38 | -20.88627 | 55.50599 | 50 ft | 7 kts | 282° |
| 2026-04-25 05:38 | -20.88604 | 55.50549 | 49 ft | 11 kts | 300° |
| 2026-04-25 05:38 | -20.88585 | 55.50498 | 46 ft | 2 kts | 246° |
| 2026-04-25 05:39 | -20.88602 | 55.50494 | 48 ft | 3 kts | 173° |
| 2026-04-25 05:39 | -20.88610 | 55.50511 | 49 ft | 2 kts | 95° |
| 2026-04-25 05:39 | -20.88611 | 55.50515 | 49 ft | 0 kts | 99° |
| 2026-04-25 05:39 | -20.88613 | 55.50526 | 49 ft | 12 kts | 100° |
| 2026-04-25 05:40 | -20.88687 | 55.50895 | 48 ft | 91 kts | 104° |
| 2026-04-25 05:40 | -20.88878 | 55.51807 | 59 ft | 159 kts | 98° |
| 2026-04-25 05:40 | -20.89081 | 55.53027 | 538 ft | 165 kts | 95° |
| 2026-04-25 05:40 | -20.89196 | 55.54222 | 1322 ft | 162 kts | 72° |
| 2026-04-25 05:41 | -20.88603 | 55.55240 | 1795 ft | 173 kts | 30° |
| 2026-04-25 05:41 | -20.87386 | 55.55538 | 1596 ft | 199 kts | 350° |
| 2026-04-25 05:41 | -20.85982 | 55.55330 | 1693 ft | 209 kts | 338° |
| 2026-04-25 05:41 | -20.84721 | 55.54469 | 1771 ft | 224 kts | 312° |
| 2026-04-25 05:42 | -20.83355 | 55.53581 | 1699 ft | 241 kts | 336° |
| 2026-04-25 05:42 | -20.81767 | 55.52865 | 1789 ft | 259 kts | 324° |
| 2026-04-25 05:42 | -20.80182 | 55.51812 | 1935 ft | 273 kts | 325° |
| 2026-04-25 05:42 | -20.78440 | 55.51073 | 2359 ft | 269 kts | 351° |
| 2026-04-25 05:43 | -20.76597 | 55.50810 | 2960 ft | 271 kts | 347° |
| 2026-04-25 05:43 | -20.74739 | 55.50404 | 3415 ft | 273 kts | 345° |
| 2026-04-25 05:43 | -20.72851 | 55.49983 | 3775 ft | 280 kts | 346° |
| 2026-04-25 05:43 | -20.70932 | 55.49592 | 4202 ft | 283 kts | 346° |
| 2026-04-25 05:44 | -20.68988 | 55.49201 | 4646 ft | 286 kts | 347° |
| 2026-04-25 05:44 | -20.67001 | 55.48821 | 5025 ft | 291 kts | 347° |
| 2026-04-25 05:44 | -20.65006 | 55.48486 | 5541 ft | 289 kts | 355° |
| 2026-04-25 05:44 | -20.63008 | 55.48185 | 5956 ft | 294 kts | 356° |
| 2026-04-25 05:45 | -20.60983 | 55.47978 | 6742 ft | 290 kts | 356° |
| 2026-04-25 05:45 | -20.58990 | 55.47675 | 7402 ft | 294 kts | 352° |
| 2026-04-25 05:45 | -20.57000 | 55.47178 | 7998 ft | 298 kts | 343° |
| 2026-04-25 05:45 | -20.55056 | 55.46364 | 8569 ft | 304 kts | 338° |
| 2026-04-25 05:46 | -20.53084 | 55.45430 | 9201 ft | 308 kts | 337° |
| 2026-04-25 05:46 | -20.51140 | 55.44498 | 9836 ft | 310 kts | 337° |
| 2026-04-25 05:46 | -20.49152 | 55.43559 | 10446 ft | 314 kts | 337° |
| 2026-04-25 05:46 | -20.47101 | 55.42610 | 10789 ft | 329 kts | 338° |
| 2026-04-25 05:47 | -20.44923 | 55.41622 | 10945 ft | 351 kts | 338° |
| 2026-04-25 05:47 | -20.42603 | 55.40586 | 11135 ft | 372 kts | 338° |
| 2026-04-25 05:47 | -20.40165 | 55.39508 | 11557 ft | 381 kts | 338° |
| 2026-04-25 05:47 | -20.37734 | 55.38438 | 12498 ft | 378 kts | 338° |
| 2026-04-25 05:48 | -20.35260 | 55.37353 | 12937 ft | 391 kts | 338° |
| 2026-04-25 05:48 | -20.32751 | 55.36256 | 13874 ft | 385 kts | 338° |
| 2026-04-25 05:48 | -20.30242 | 55.35162 | 14437 ft | 394 kts | 338° |
| 2026-04-25 05:48 | -20.27660 | 55.34037 | 14850 ft | 404 kts | 338° |
| 2026-04-25 05:49 | -20.25946 | 55.33291 | 15337 ft | 402 kts | 338° |
| 2026-04-25 05:49 | -20.23354 | 55.32162 | 16089 ft | 404 kts | 338° |
| 2026-04-25 05:49 | -20.20720 | 55.31016 | 16625 ft | 408 kts | 338° |
| 2026-04-25 05:49 | -20.18078 | 55.29867 | 17325 ft | 413 kts | 338° |
| 2026-04-25 05:50 | -20.15385 | 55.28695 | 17791 ft | 419 kts | 338° |
| 2026-04-25 05:50 | -20.12699 | 55.27528 | 18560 ft | 419 kts | 338° |
| 2026-04-25 05:50 | -20.10001 | 55.26355 | 18865 ft | 428 kts | 338° |
| 2026-04-25 05:50 | -20.07250 | 55.25160 | 19576 ft | 426 kts | 338° |
| 2026-04-25 05:51 | -20.04468 | 55.23952 | 19877 ft | 436 kts | 338° |
| 2026-04-25 05:51 | -20.01667 | 55.22736 | 20598 ft | 434 kts | 337° |
| 2026-04-25 05:51 | -19.98833 | 55.21506 | 20853 ft | 445 kts | 337° |
| 2026-04-25 05:51 | -19.95962 | 55.20262 | 21521 ft | 443 kts | 337° |
| 2026-04-25 05:52 | -19.93078 | 55.19012 | 21869 ft | 452 kts | 337° |
| 2026-04-25 05:52 | -19.90136 | 55.17737 | 22209 ft | 459 kts | 337° |
| 2026-04-25 05:52 | -19.87167 | 55.16450 | 22655 ft | 463 kts | 337° |
| 2026-04-25 05:52 | -19.84158 | 55.15148 | 23078 ft | 468 kts | 337° |
| 2026-04-25 05:53 | -19.81129 | 55.13837 | 23402 ft | 474 kts | 337° |
| 2026-04-25 05:53 | -19.78092 | 55.12523 | 23701 ft | 480 kts | 337° |
| 2026-04-25 05:53 | -19.74984 | 55.11179 | 23986 ft | 485 kts | 337° |
| 2026-04-25 05:53 | -19.71848 | 55.09825 | 24283 ft | 489 kts | 337° |
| 2026-04-25 05:54 | -19.68691 | 55.08461 | 24623 ft | 491 kts | 337° |
| 2026-04-25 05:54 | -19.65515 | 55.07090 | 24993 ft | 493 kts | 337° |
| 2026-04-25 05:54 | -19.59128 | 55.04333 | 25672 ft | 498 kts | 336° |
| 2026-04-25 05:55 | -19.55909 | 55.02945 | 25985 ft | 501 kts | 336° |
| 2026-04-25 05:55 | -19.52674 | 55.01550 | 26309 ft | 503 kts | 336° |
| 2026-04-25 05:55 | -19.49412 | 55.00145 | 26625 ft | 506 kts | 336° |
| 2026-04-25 05:55 | -19.46141 | 54.98736 | 26948 ft | 508 kts | 336° |
| 2026-04-25 05:56 | -19.42860 | 54.97323 | 27264 ft | 510 kts | 336° |
| 2026-04-25 05:56 | -19.39557 | 54.95902 | 27574 ft | 513 kts | 336° |
| 2026-04-25 05:56 | -19.36245 | 54.94478 | 27870 ft | 515 kts | 336° |
| 2026-04-25 05:56 | -19.32955 | 54.93064 | 28168 ft | 517 kts | 336° |
| 2026-04-25 05:57 | -19.29611 | 54.91627 | 28459 ft | 519 kts | 336° |
| 2026-04-25 05:57 | -19.26264 | 54.90190 | 28733 ft | 521 kts | 336° |
| 2026-04-25 05:57 | -19.22888 | 54.88741 | 29006 ft | 523 kts | 336° |
| 2026-04-25 05:57 | -19.19512 | 54.87293 | 29264 ft | 524 kts | 336° |
| 2026-04-25 05:58 | -19.16125 | 54.85841 | 29516 ft | 526 kts | 336° |
| 2026-04-25 05:58 | -19.12727 | 54.84385 | 29743 ft | 528 kts | 336° |
| 2026-04-25 05:58 | -19.09319 | 54.82926 | 30021 ft | 528 kts | 336° |
| 2026-04-25 05:58 | -19.05909 | 54.81464 | 30347 ft | 526 kts | 335° |
| 2026-04-25 05:59 | -19.02605 | 54.79849 | 30709 ft | 522 kts | 329° |
| 2026-04-25 05:59 | -18.99510 | 54.77886 | 31074 ft | 517 kts | 323° |
| 2026-04-25 05:59 | -18.96632 | 54.75710 | 31425 ft | 513 kts | 319° |
| 2026-04-25 05:59 | -18.93911 | 54.73217 | 31758 ft | 509 kts | 314° |
| 2026-04-25 06:00 | -18.91377 | 54.70661 | 32056 ft | 508 kts | 313° |
| 2026-04-25 06:00 | -18.88831 | 54.68071 | 32370 ft | 506 kts | 313° |
| 2026-04-25 06:00 | -18.86297 | 54.65503 | 32705 ft | 504 kts | 313° |
| 2026-04-25 06:00 | -18.83756 | 54.62951 | 33052 ft | 502 kts | 313° |
| 2026-04-25 06:01 | -18.81215 | 54.60417 | 33374 ft | 500 kts | 314° |
| 2026-04-25 06:01 | -18.78717 | 54.57937 | 33677 ft | 499 kts | 314° |
| 2026-04-25 06:01 | -18.76187 | 54.55430 | 33956 ft | 498 kts | 314° |
| 2026-04-25 06:01 | -18.73663 | 54.52931 | 34210 ft | 496 kts | 314° |
| 2026-04-25 06:02 | -18.71152 | 54.50443 | 34472 ft | 495 kts | 314° |
| 2026-04-25 06:02 | -18.68650 | 54.47966 | 34734 ft | 493 kts | 314° |
| 2026-04-25 06:02 | -18.66155 | 54.45494 | 34979 ft | 491 kts | 314° |
| 2026-04-25 06:02 | -18.63645 | 54.43041 | 35193 ft | 491 kts | 316° |
| 2026-04-25 06:03 | -18.60941 | 54.40818 | 35389 ft | 492 kts | 322° |
| 2026-04-25 06:03 | -18.58054 | 54.38870 | 35603 ft | 493 kts | 327° |
| 2026-04-25 06:03 | -18.55002 | 54.37210 | 35798 ft | 494 kts | 332° |
| 2026-04-25 06:03 | -18.51904 | 54.35742 | 35900 ft | 496 kts | 333° |
| 2026-04-25 06:04 | -18.45571 | 54.32806 | 35970 ft | 496 kts | 333° |
| 2026-04-25 06:04 | -18.39292 | 54.29865 | 35963 ft | 492 kts | 333° |
| 2026-04-25 06:05 | -18.33074 | 54.26919 | 35969 ft | 489 kts | 332° |
| 2026-04-25 06:05 | -18.26865 | 54.23971 | 35975 ft | 488 kts | 332° |
| 2026-04-25 06:06 | -18.20713 | 54.21056 | 35971 ft | 488 kts | 332° |
| 2026-04-25 06:06 | -18.14509 | 54.18122 | 35973 ft | 489 kts | 332° |
| 2026-04-25 06:07 | -18.08295 | 54.15182 | 35972 ft | 490 kts | 332° |
| 2026-04-25 06:07 | -18.02078 | 54.12227 | 35973 ft | 491 kts | 332° |
| 2026-04-25 06:08 | -17.95850 | 54.09267 | 35972 ft | 492 kts | 332° |
| 2026-04-25 06:08 | -17.89595 | 54.06301 | 35975 ft | 492 kts | 332° |
| 2026-04-25 06:09 | -17.83389 | 54.03362 | 35971 ft | 492 kts | 332° |
| 2026-04-25 06:09 | -17.77151 | 54.00411 | 35970 ft | 491 kts | 332° |
| 2026-04-25 06:10 | -17.70921 | 53.97466 | 35970 ft | 490 kts | 332° |
| 2026-04-25 06:10 | -17.64702 | 53.94528 | 35968 ft | 489 kts | 332° |
| 2026-04-25 06:11 | -17.58493 | 53.91597 | 35969 ft | 488 kts | 332° |
| 2026-04-25 06:11 | -17.52334 | 53.88692 | 35969 ft | 487 kts | 332° |
| 2026-04-25 06:12 | -17.46152 | 53.85777 | 35966 ft | 486 kts | 332° |
| 2026-04-25 06:12 | -17.39968 | 53.82865 | 35971 ft | 486 kts | 332° |
| 2026-04-25 06:13 | -17.33844 | 53.79982 | 35963 ft | 485 kts | 332° |
| 2026-04-25 06:14 | -17.24605 | 53.75638 | 35958 ft | 485 kts | 332° |
| 2026-04-25 06:14 | -17.18450 | 53.72747 | 35960 ft | 485 kts | 332° |
| 2026-04-25 06:15 | -17.12292 | 53.69856 | 35972 ft | 485 kts | 332° |
| 2026-04-25 06:15 | -17.06159 | 53.66979 | 35969 ft | 485 kts | 332° |
| 2026-04-25 06:16 | -17.00002 | 53.64092 | 35968 ft | 485 kts | 332° |
| 2026-04-25 06:16 | -16.93837 | 53.61205 | 35962 ft | 485 kts | 332° |
| 2026-04-25 06:17 | -16.87672 | 53.58319 | 35963 ft | 485 kts | 333° |
| 2026-04-25 06:17 | -16.81506 | 53.55435 | 35968 ft | 485 kts | 333° |
| 2026-04-25 06:18 | -16.75376 | 53.52570 | 35966 ft | 485 kts | 333° |
| 2026-04-25 06:18 | -16.69220 | 53.49696 | 35962 ft | 485 kts | 333° |
| 2026-04-25 06:19 | -16.63060 | 53.46821 | 35964 ft | 484 kts | 333° |
| 2026-04-25 06:19 | -16.56907 | 53.43952 | 35961 ft | 484 kts | 333° |
| 2026-04-25 06:20 | -16.50757 | 53.41087 | 35964 ft | 484 kts | 333° |
| 2026-04-25 06:20 | -16.44640 | 53.38241 | 35962 ft | 484 kts | 333° |
| 2026-04-25 06:21 | -16.38460 | 53.35364 | 35963 ft | 483 kts | 333° |
| 2026-04-25 06:21 | -16.32366 | 53.32521 | 35965 ft | 483 kts | 333° |
| 2026-04-25 06:22 | -16.26220 | 53.29655 | 35958 ft | 483 kts | 333° |
| 2026-04-25 06:22 | -16.20078 | 53.26796 | 35962 ft | 483 kts | 333° |
| 2026-04-25 06:23 | -16.13937 | 53.23941 | 35964 ft | 483 kts | 333° |
| 2026-04-25 06:23 | -16.07799 | 53.21090 | 35960 ft | 483 kts | 333° |
| 2026-04-25 06:24 | -16.01659 | 53.18240 | 35960 ft | 483 kts | 333° |
| 2026-04-25 06:24 | -15.95509 | 53.15387 | 35963 ft | 484 kts | 333° |
| 2026-04-25 06:25 | -15.89363 | 53.12537 | 35961 ft | 484 kts | 333° |
| 2026-04-25 06:25 | -15.83241 | 53.09701 | 35957 ft | 484 kts | 333° |
| 2026-04-25 06:26 | -15.77090 | 53.06854 | 35960 ft | 484 kts | 333° |
| 2026-04-25 06:26 | -15.70941 | 53.04008 | 35958 ft | 484 kts | 333° |
| 2026-04-25 06:27 | -15.64782 | 53.01161 | 35959 ft | 484 kts | 333° |
| 2026-04-25 06:27 | -15.58651 | 52.98328 | 35957 ft | 484 kts | 333° |
| 2026-04-25 06:28 | -15.52490 | 52.95483 | 35955 ft | 484 kts | 333° |
| 2026-04-25 06:28 | -15.46317 | 52.92635 | 35956 ft | 484 kts | 333° |
| 2026-04-25 06:29 | -15.40198 | 52.89813 | 35958 ft | 484 kts | 333° |
| 2026-04-25 06:29 | -15.34048 | 52.86979 | 35953 ft | 484 kts | 333° |
| 2026-04-25 06:30 | -15.27895 | 52.84145 | 35959 ft | 483 kts | 333° |
| 2026-04-25 06:30 | -15.21748 | 52.81316 | 35957 ft | 483 kts | 333° |
| 2026-04-25 06:31 | -15.15609 | 52.78492 | 35954 ft | 482 kts | 333° |
| 2026-04-25 06:31 | -15.09510 | 52.75689 | 35954 ft | 482 kts | 333° |
| 2026-04-25 06:32 | -15.03372 | 52.72869 | 35954 ft | 482 kts | 333° |
| 2026-04-25 06:32 | -14.97243 | 52.70056 | 35957 ft | 481 kts | 333° |
| 2026-04-25 06:33 | -14.91117 | 52.67245 | 35954 ft | 481 kts | 333° |
| 2026-04-25 06:33 | -14.84998 | 52.64440 | 35954 ft | 480 kts | 333° |
| 2026-04-25 06:34 | -14.78919 | 52.61654 | 35952 ft | 480 kts | 333° |
| 2026-04-25 06:34 | -14.72808 | 52.58856 | 35954 ft | 480 kts | 333° |
| 2026-04-25 06:35 | -14.66699 | 52.56060 | 35956 ft | 479 kts | 333° |
| 2026-04-25 06:35 | -14.60594 | 52.53268 | 35956 ft | 479 kts | 333° |
| 2026-04-25 06:36 | -14.54524 | 52.50493 | 35954 ft | 479 kts | 333° |
| 2026-04-25 06:36 | -14.48427 | 52.47708 | 35956 ft | 479 kts | 333° |
| 2026-04-25 06:37 | -14.42324 | 52.44921 | 35953 ft | 479 kts | 333° |
| 2026-04-25 06:37 | -14.37253 | 52.42607 | 35954 ft | 479 kts | 333° |
| 2026-04-25 06:38 | -14.30130 | 52.39359 | 35958 ft | 478 kts | 333° |
| 2026-04-25 06:38 | -14.24074 | 52.36599 | 35951 ft | 478 kts | 333° |
| 2026-04-25 06:39 | -14.17992 | 52.33829 | 35953 ft | 478 kts | 333° |
| 2026-04-25 06:39 | -14.11914 | 52.31063 | 35952 ft | 478 kts | 333° |
| 2026-04-25 06:40 | -14.06858 | 52.28763 | 35953 ft | 477 kts | 333° |
| 2026-04-25 06:40 | -14.00779 | 52.25999 | 35952 ft | 477 kts | 333° |
| 2026-04-25 06:41 | -13.94701 | 52.23237 | 35956 ft | 477 kts | 333° |
| 2026-04-25 06:41 | -13.88626 | 52.20478 | 35955 ft | 477 kts | 333° |
| 2026-04-25 06:42 | -13.82547 | 52.17719 | 35952 ft | 477 kts | 333° |
| 2026-04-25 06:42 | -13.76462 | 52.14959 | 35953 ft | 477 kts | 333° |
| 2026-04-25 06:43 | -13.70374 | 52.12199 | 35957 ft | 477 kts | 334° |
| 2026-04-25 06:43 | -13.64330 | 52.09462 | 35956 ft | 478 kts | 334° |
| 2026-04-25 06:44 | -13.58249 | 52.06709 | 35953 ft | 478 kts | 334° |
| 2026-04-25 06:44 | -13.52161 | 52.03956 | 35954 ft | 478 kts | 334° |
| 2026-04-25 06:45 | -13.46064 | 52.01200 | 35952 ft | 478 kts | 334° |
| 2026-04-25 06:45 | -13.39981 | 51.98449 | 35952 ft | 478 kts | 334° |
| 2026-04-25 06:46 | -13.33891 | 51.95693 | 35954 ft | 478 kts | 334° |
| 2026-04-25 06:46 | -13.27801 | 51.92941 | 35954 ft | 478 kts | 334° |
| 2026-04-25 06:47 | -13.21712 | 51.90193 | 35951 ft | 478 kts | 334° |
| 2026-04-25 06:47 | -13.15656 | 51.87462 | 35954 ft | 478 kts | 334° |
| 2026-04-25 06:48 | -13.09563 | 51.84716 | 35952 ft | 478 kts | 334° |
| 2026-04-25 06:48 | -13.03464 | 51.81969 | 35955 ft | 478 kts | 334° |
| 2026-04-25 06:49 | -12.97372 | 51.79226 | 35953 ft | 478 kts | 334° |
| 2026-04-25 06:49 | -12.91318 | 51.76502 | 35953 ft | 478 kts | 334° |
| 2026-04-25 06:50 | -12.85226 | 51.73763 | 35954 ft | 478 kts | 334° |
| 2026-04-25 06:50 | -12.79127 | 51.71021 | 35952 ft | 478 kts | 334° |
| 2026-04-25 06:51 | -12.73032 | 51.68283 | 35950 ft | 478 kts | 334° |
| 2026-04-25 06:51 | -12.66929 | 51.65543 | 35947 ft | 478 kts | 334° |
| 2026-04-25 06:52 | -12.60835 | 51.62808 | 35945 ft | 478 kts | 334° |
| 2026-04-25 06:52 | -12.54768 | 51.60087 | 35951 ft | 479 kts | 334° |
| 2026-04-25 06:53 | -12.48660 | 51.57350 | 35947 ft | 479 kts | 334° |
| 2026-04-25 06:53 | -12.42557 | 51.54615 | 35948 ft | 479 kts | 334° |
| 2026-04-25 06:54 | -12.36455 | 51.51883 | 35948 ft | 479 kts | 334° |
| 2026-04-25 06:54 | -12.30384 | 51.49167 | 35948 ft | 479 kts | 334° |
| 2026-04-25 06:55 | -12.24279 | 51.46436 | 35947 ft | 479 kts | 334° |
| 2026-04-25 06:55 | -12.18170 | 51.43707 | 35949 ft | 479 kts | 334° |
| 2026-04-25 06:56 | -12.12068 | 51.40981 | 35947 ft | 479 kts | 334° |
| 2026-04-25 06:56 | -12.05963 | 51.38250 | 35945 ft | 479 kts | 334° |
| 2026-04-25 06:57 | -11.99863 | 51.35521 | 35944 ft | 478 kts | 334° |
| 2026-04-25 06:57 | -11.93759 | 51.32796 | 35949 ft | 478 kts | 334° |
| 2026-04-25 06:58 | -11.87664 | 51.30077 | 35947 ft | 478 kts | 334° |
| 2026-04-25 06:58 | -11.81562 | 51.27357 | 35946 ft | 478 kts | 334° |
| 2026-04-25 06:59 | -11.75500 | 51.24656 | 35945 ft | 477 kts | 334° |
| 2026-04-25 06:59 | -11.69417 | 51.21946 | 35944 ft | 477 kts | 334° |
| 2026-04-25 07:00 | -11.63322 | 51.19233 | 35945 ft | 477 kts | 334° |
| 2026-04-25 07:00 | -11.57233 | 51.16523 | 35945 ft | 477 kts | 334° |
| 2026-04-25 07:01 | -11.51160 | 51.13823 | 35944 ft | 476 kts | 334° |
| 2026-04-25 07:01 | -11.45114 | 51.11135 | 35944 ft | 476 kts | 334° |
| 2026-04-25 07:02 | -11.39032 | 51.08433 | 35945 ft | 476 kts | 334° |
| 2026-04-25 07:02 | -11.32960 | 51.05736 | 35945 ft | 475 kts | 334° |
| 2026-04-25 07:03 | -11.26886 | 51.03039 | 35943 ft | 475 kts | 334° |
| 2026-04-25 07:03 | -11.20830 | 51.00353 | 35940 ft | 475 kts | 334° |
| 2026-04-25 07:04 | -11.14817 | 50.97686 | 35944 ft | 474 kts | 334° |
| 2026-04-25 07:04 | -11.08756 | 50.94999 | 35936 ft | 474 kts | 334° |
| 2026-04-25 07:05 | -11.02703 | 50.92317 | 35938 ft | 474 kts | 334° |
| 2026-04-25 07:05 | -10.96653 | 50.89637 | 35952 ft | 474 kts | 334° |
| 2026-04-25 07:06 | -10.90597 | 50.86956 | 35940 ft | 474 kts | 334° |
| 2026-04-25 07:06 | -10.84582 | 50.84295 | 35938 ft | 474 kts | 334° |
| 2026-04-25 07:07 | -10.78520 | 50.81613 | 35939 ft | 474 kts | 334° |
| 2026-04-25 07:07 | -10.72465 | 50.78936 | 35939 ft | 474 kts | 334° |
| 2026-04-25 07:08 | -10.66445 | 50.76276 | 35942 ft | 474 kts | 334° |
| 2026-04-25 07:08 | -10.60388 | 50.73600 | 35938 ft | 474 kts | 334° |
| 2026-04-25 07:09 | -10.54328 | 50.70925 | 35938 ft | 474 kts | 334° |
| 2026-04-25 07:09 | -10.48271 | 50.68252 | 35936 ft | 475 kts | 334° |
| 2026-04-25 07:10 | -10.42204 | 50.65576 | 35936 ft | 475 kts | 334° |
| 2026-04-25 07:10 | -10.36183 | 50.62921 | 35937 ft | 475 kts | 334° |
| 2026-04-25 07:11 | -10.30121 | 50.60249 | 35937 ft | 475 kts | 334° |
| 2026-04-25 07:11 | -10.24059 | 50.57579 | 35936 ft | 475 kts | 334° |
| 2026-04-25 07:12 | -10.17988 | 50.54906 | 35937 ft | 475 kts | 334° |
| 2026-04-25 07:12 | -10.08897 | 50.50907 | 35936 ft | 475 kts | 334° |
| 2026-04-25 07:13 | -10.02878 | 50.48261 | 35932 ft | 474 kts | 334° |
| 2026-04-25 07:13 | -9.96811 | 50.45591 | 35937 ft | 474 kts | 334° |
| 2026-04-25 07:14 | -9.90750 | 50.42920 | 35934 ft | 474 kts | 334° |
| 2026-04-25 07:14 | -9.84689 | 50.40252 | 35933 ft | 474 kts | 334° |
| 2026-04-25 07:15 | -9.78634 | 50.37591 | 35934 ft | 474 kts | 334° |
| 2026-04-25 07:15 | -9.72583 | 50.34933 | 35930 ft | 474 kts | 334° |
| 2026-04-25 07:16 | -9.66561 | 50.32289 | 35934 ft | 474 kts | 334° |
| 2026-04-25 07:16 | -9.60504 | 50.29631 | 35929 ft | 474 kts | 334° |
| 2026-04-25 07:17 | -9.54455 | 50.26977 | 35929 ft | 474 kts | 334° |
| 2026-04-25 07:17 | -9.48403 | 50.24323 | 35935 ft | 474 kts | 334° |
| 2026-04-25 07:18 | -9.42350 | 50.21669 | 35932 ft | 473 kts | 334° |
| 2026-04-25 07:18 | -9.36302 | 50.19018 | 35928 ft | 473 kts | 334° |
| 2026-04-25 07:19 | -9.30254 | 50.16369 | 35926 ft | 473 kts | 334° |
| 2026-04-25 07:19 | -9.24250 | 50.13740 | 35930 ft | 473 kts | 334° |
| 2026-04-25 07:20 | -9.18215 | 50.11098 | 35934 ft | 473 kts | 334° |
| 2026-04-25 07:20 | -9.12165 | 50.08451 | 35930 ft | 473 kts | 334° |
| 2026-04-25 07:21 | -9.06118 | 50.05806 | 35929 ft | 472 kts | 334° |
| 2026-04-25 07:21 | -9.00082 | 50.03167 | 35927 ft | 472 kts | 334° |
| 2026-04-25 07:22 | -8.94044 | 50.00528 | 35924 ft | 472 kts | 334° |
| 2026-04-25 07:22 | -8.88055 | 49.97911 | 35927 ft | 472 kts | 334° |
| 2026-04-25 07:23 | -8.82023 | 49.95277 | 35934 ft | 471 kts | 334° |
| 2026-04-25 07:23 | -8.76001 | 49.92648 | 35931 ft | 471 kts | 334° |
| 2026-04-25 07:24 | -8.69984 | 49.90022 | 35925 ft | 471 kts | 334° |
| 2026-04-25 07:24 | -8.63970 | 49.87398 | 35927 ft | 470 kts | 334° |
| 2026-04-25 07:25 | -8.57961 | 49.84778 | 35927 ft | 470 kts | 334° |
| 2026-04-25 07:25 | -8.51980 | 49.82170 | 35926 ft | 470 kts | 334° |
| 2026-04-25 07:26 | -8.46986 | 49.79993 | 35925 ft | 470 kts | 335° |
| 2026-04-25 07:26 | -8.40980 | 49.77376 | 35924 ft | 470 kts | 335° |
| 2026-04-25 07:27 | -8.34976 | 49.74761 | 35924 ft | 470 kts | 335° |
| 2026-04-25 07:27 | -8.28971 | 49.72146 | 35924 ft | 470 kts | 335° |
| 2026-04-25 07:28 | -8.22973 | 49.69535 | 35921 ft | 470 kts | 335° |
| 2026-04-25 07:28 | -8.16968 | 49.66922 | 35930 ft | 470 kts | 335° |
| 2026-04-25 07:29 | -8.10959 | 49.64308 | 35923 ft | 470 kts | 335° |
| 2026-04-25 07:29 | -8.04985 | 49.61710 | 35919 ft | 470 kts | 335° |
| 2026-04-25 07:30 | -7.98968 | 49.59095 | 35927 ft | 470 kts | 335° |
| 2026-04-25 07:30 | -7.92954 | 49.56481 | 35924 ft | 470 kts | 335° |
| 2026-04-25 07:31 | -7.86946 | 49.53871 | 35924 ft | 470 kts | 335° |
| 2026-04-25 07:31 | -7.80957 | 49.51270 | 35923 ft | 471 kts | 335° |
| 2026-04-25 07:32 | -7.74937 | 49.48656 | 35924 ft | 471 kts | 335° |
| 2026-04-25 07:32 | -7.68911 | 49.46041 | 35922 ft | 471 kts | 335° |
| 2026-04-25 07:33 | -7.62894 | 49.43430 | 35925 ft | 471 kts | 335° |
| 2026-04-25 07:33 | -7.56859 | 49.40813 | 35919 ft | 472 kts | 335° |
| 2026-04-25 07:34 | -7.50826 | 49.38197 | 35920 ft | 472 kts | 335° |
| 2026-04-25 07:34 | -7.44791 | 49.35581 | 35925 ft | 472 kts | 335° |
| 2026-04-25 07:35 | -7.38783 | 49.32978 | 35926 ft | 472 kts | 335° |
| 2026-04-25 07:35 | -7.32733 | 49.30357 | 35922 ft | 473 kts | 335° |
| 2026-04-25 07:36 | -7.26673 | 49.27733 | 35923 ft | 473 kts | 335° |
| 2026-04-25 07:36 | -7.20666 | 49.25133 | 35922 ft | 473 kts | 335° |
| 2026-04-25 07:37 | -7.14618 | 49.22516 | 35919 ft | 473 kts | 335° |
| 2026-04-25 07:37 | -7.08561 | 49.19897 | 35925 ft | 473 kts | 335° |
| 2026-04-25 07:38 | -7.02506 | 49.17280 | 35925 ft | 473 kts | 335° |
| 2026-04-25 07:38 | -6.96460 | 49.14662 | 35920 ft | 473 kts | 335° |
| 2026-04-25 07:39 | -6.90415 | 49.12040 | 35927 ft | 473 kts | 335° |
| 2026-04-25 07:39 | -6.84369 | 49.09422 | 35926 ft | 473 kts | 335° |
| 2026-04-25 07:40 | -6.78355 | 49.06820 | 35921 ft | 473 kts | 335° |
| 2026-04-25 07:40 | -6.72301 | 49.04202 | 35920 ft | 473 kts | 336° |
| 2026-04-25 07:41 | -6.66257 | 49.01590 | 35924 ft | 473 kts | 336° |
| 2026-04-25 07:41 | -6.60199 | 48.98972 | 35920 ft | 473 kts | 336° |
| 2026-04-25 07:42 | -6.54158 | 48.96361 | 35921 ft | 473 kts | 336° |
| 2026-04-25 07:42 | -6.48102 | 48.93745 | 35923 ft | 473 kts | 336° |
| 2026-04-25 07:43 | -6.42086 | 48.91148 | 35919 ft | 473 kts | 336° |
| 2026-04-25 07:43 | -6.36034 | 48.88535 | 35923 ft | 473 kts | 336° |
| 2026-04-25 07:44 | -6.29977 | 48.85921 | 35918 ft | 473 kts | 336° |
| 2026-04-25 07:44 | -6.23919 | 48.83307 | 35922 ft | 473 kts | 336° |
| 2026-04-25 07:45 | -6.17915 | 48.80717 | 35923 ft | 473 kts | 336° |
| 2026-04-25 07:45 | -6.11870 | 48.78110 | 35920 ft | 473 kts | 336° |
| 2026-04-25 07:46 | -6.05821 | 48.75501 | 35919 ft | 473 kts | 336° |
| 2026-04-25 07:46 | -5.99770 | 48.72893 | 35921 ft | 473 kts | 336° |
| 2026-04-25 07:47 | -5.93721 | 48.70286 | 35925 ft | 473 kts | 336° |
| 2026-04-25 07:47 | -5.87674 | 48.67680 | 35924 ft | 473 kts | 336° |
| 2026-04-25 07:48 | -5.81625 | 48.65075 | 35923 ft | 473 kts | 336° |
| 2026-04-25 07:48 | -5.75575 | 48.62470 | 35922 ft | 473 kts | 336° |
| 2026-04-25 07:49 | -5.69560 | 48.59881 | 35929 ft | 473 kts | 336° |
| 2026-04-25 07:49 | -5.63508 | 48.57277 | 35925 ft | 473 kts | 336° |
| 2026-04-25 07:50 | -5.57436 | 48.54663 | 35925 ft | 473 kts | 336° |
| 2026-04-25 07:50 | -5.51421 | 48.52075 | 35923 ft | 473 kts | 336° |
| 2026-04-25 07:51 | -5.45332 | 48.49456 | 35925 ft | 473 kts | 336° |
| 2026-04-25 07:51 | -5.39273 | 48.46850 | 35929 ft | 474 kts | 336° |
| 2026-04-25 07:52 | -5.33214 | 48.44245 | 35920 ft | 474 kts | 336° |
| 2026-04-25 07:52 | -5.27185 | 48.41653 | 35925 ft | 474 kts | 336° |
| 2026-04-25 07:53 | -5.21123 | 48.39047 | 35926 ft | 474 kts | 336° |
| 2026-04-25 07:53 | -5.15054 | 48.36440 | 35925 ft | 474 kts | 336° |
| 2026-04-25 07:54 | -5.09017 | 48.33846 | 35923 ft | 474 kts | 337° |
| 2026-04-25 07:54 | -5.02944 | 48.31238 | 35927 ft | 474 kts | 337° |
| 2026-04-25 07:55 | -4.96864 | 48.28627 | 35920 ft | 475 kts | 337° |
| 2026-04-25 07:55 | -4.90791 | 48.26019 | 35924 ft | 475 kts | 337° |
| 2026-04-25 07:56 | -4.84715 | 48.23411 | 35918 ft | 475 kts | 337° |
| 2026-04-25 07:56 | -4.78637 | 48.20803 | 35924 ft | 475 kts | 337° |
| 2026-04-25 07:57 | -4.72557 | 48.18194 | 35928 ft | 475 kts | 337° |
| 2026-04-25 07:57 | -4.66508 | 48.15599 | 35920 ft | 475 kts | 337° |
| 2026-04-25 07:58 | -4.60421 | 48.12988 | 35919 ft | 476 kts | 337° |
| 2026-04-25 07:58 | -4.54320 | 48.10372 | 35924 ft | 476 kts | 337° |
| 2026-04-25 07:59 | -4.48234 | 48.07763 | 35925 ft | 476 kts | 337° |
| 2026-04-25 07:59 | -4.42143 | 48.05152 | 35920 ft | 476 kts | 337° |
| 2026-04-25 08:00 | -4.36088 | 48.02558 | 35918 ft | 476 kts | 337° |
| 2026-04-25 08:00 | -4.29991 | 47.99947 | 35924 ft | 476 kts | 337° |
| 2026-04-25 08:01 | -4.23893 | 47.97336 | 35920 ft | 476 kts | 337° |
| 2026-04-25 08:01 | -4.17796 | 47.94720 | 35923 ft | 477 kts | 337° |
| 2026-04-25 08:02 | -4.11697 | 47.92098 | 35919 ft | 477 kts | 337° |
| 2026-04-25 08:02 | -4.05586 | 47.89474 | 35921 ft | 477 kts | 337° |
| 2026-04-25 08:03 | -3.99522 | 47.86872 | 35922 ft | 477 kts | 337° |
| 2026-04-25 08:03 | -3.93414 | 47.84253 | 35920 ft | 477 kts | 337° |
| 2026-04-25 08:04 | -3.87307 | 47.81634 | 35921 ft | 477 kts | 337° |
| 2026-04-25 08:04 | -3.81205 | 47.79018 | 35919 ft | 477 kts | 337° |
| 2026-04-25 08:05 | -3.75099 | 47.76400 | 35923 ft | 477 kts | 337° |
| 2026-04-25 08:05 | -3.69020 | 47.73794 | 35923 ft | 477 kts | 337° |
| 2026-04-25 08:06 | -3.62914 | 47.71177 | 35923 ft | 477 kts | 337° |
| 2026-04-25 08:06 | -3.56793 | 47.68555 | 35919 ft | 477 kts | 337° |
| 2026-04-25 08:07 | -3.50686 | 47.65938 | 35920 ft | 477 kts | 337° |
| 2026-04-25 08:07 | -3.44566 | 47.63317 | 35918 ft | 477 kts | 337° |
| 2026-04-25 08:08 | -3.38495 | 47.60716 | 35918 ft | 478 kts | 337° |
| 2026-04-25 08:08 | -3.32381 | 47.58098 | 35921 ft | 478 kts | 337° |
| 2026-04-25 08:09 | -3.26262 | 47.55478 | 35920 ft | 478 kts | 337° |
| 2026-04-25 08:09 | -3.20144 | 47.52859 | 35921 ft | 478 kts | 337° |
| 2026-04-25 08:10 | -3.14071 | 47.50261 | 35921 ft | 478 kts | 337° |
| 2026-04-25 08:10 | -3.07954 | 47.47644 | 35917 ft | 478 kts | 337° |
| 2026-04-25 08:11 | -3.01840 | 47.45028 | 35918 ft | 478 kts | 337° |
| 2026-04-25 08:11 | -2.95721 | 47.42407 | 35917 ft | 478 kts | 337° |
| 2026-04-25 08:12 | -2.89589 | 47.39781 | 35916 ft | 478 kts | 337° |
| 2026-04-25 08:12 | -2.83489 | 47.37171 | 35916 ft | 478 kts | 338° |
| 2026-04-25 08:13 | -2.77364 | 47.34552 | 35918 ft | 479 kts | 338° |
| 2026-04-25 08:14 | -2.69203 | 47.31063 | 35915 ft | 479 kts | 337° |
| 2026-04-25 08:14 | -2.62074 | 47.28016 | 35915 ft | 479 kts | 337° |
| 2026-04-25 08:15 | -2.56973 | 47.25835 | 35911 ft | 479 kts | 337° |
| 2026-04-25 08:15 | -2.50831 | 47.23210 | 35916 ft | 479 kts | 337° |
| 2026-04-25 08:16 | -2.44685 | 47.20584 | 35912 ft | 480 kts | 337° |
| 2026-04-25 08:16 | -2.38533 | 47.17955 | 35915 ft | 480 kts | 337° |
| 2026-04-25 08:17 | -2.32415 | 47.15341 | 35916 ft | 480 kts | 337° |
| 2026-04-25 08:17 | -2.26261 | 47.12712 | 35916 ft | 480 kts | 337° |
| 2026-04-25 08:18 | -2.20148 | 47.10101 | 35912 ft | 480 kts | 337° |
| 2026-04-25 08:18 | -2.13992 | 47.07471 | 35913 ft | 480 kts | 337° |
| 2026-04-25 08:19 | -2.07845 | 47.04846 | 35914 ft | 481 kts | 337° |
| 2026-04-25 08:19 | -2.01687 | 47.02216 | 35912 ft | 481 kts | 337° |
| 2026-04-25 08:20 | -1.95571 | 46.99604 | 35914 ft | 481 kts | 337° |
| 2026-04-25 08:20 | -1.89412 | 46.96974 | 35912 ft | 481 kts | 337° |
| 2026-04-25 08:21 | -1.83251 | 46.94343 | 35912 ft | 481 kts | 337° |
| 2026-04-25 08:21 | -1.77128 | 46.91730 | 35914 ft | 481 kts | 337° |
| 2026-04-25 08:22 | -1.70968 | 46.89100 | 35914 ft | 481 kts | 337° |
| 2026-04-25 08:22 | -1.64804 | 46.86469 | 35912 ft | 481 kts | 337° |
| 2026-04-25 08:23 | -1.58642 | 46.83839 | 35912 ft | 481 kts | 337° |
| 2026-04-25 08:23 | -1.52478 | 46.81208 | 35912 ft | 481 kts | 337° |
| 2026-04-25 08:24 | -1.46357 | 46.78596 | 35913 ft | 481 kts | 337° |
| 2026-04-25 08:24 | -1.40202 | 46.75970 | 35914 ft | 481 kts | 337° |
| 2026-04-25 08:25 | -1.34048 | 46.73344 | 35910 ft | 480 kts | 337° |
| 2026-04-25 08:25 | -1.27900 | 46.70721 | 35911 ft | 479 kts | 337° |
| 2026-04-25 08:26 | -1.21810 | 46.68124 | 35911 ft | 479 kts | 337° |
| 2026-04-25 08:26 | -1.15685 | 46.65513 | 35909 ft | 478 kts | 337° |
| 2026-04-25 08:27 | -1.09564 | 46.62901 | 35910 ft | 478 kts | 337° |
| 2026-04-25 08:27 | -1.03445 | 46.60291 | 35913 ft | 478 kts | 337° |
| 2026-04-25 08:28 | -0.97321 | 46.57682 | 35914 ft | 478 kts | 337° |
| 2026-04-25 08:28 | -0.91195 | 46.55073 | 35911 ft | 478 kts | 337° |
| 2026-04-25 08:29 | -0.85114 | 46.52484 | 35910 ft | 479 kts | 337° |
| 2026-04-25 08:29 | -0.78979 | 46.49871 | 35910 ft | 479 kts | 337° |
| 2026-04-25 08:30 | -0.72845 | 46.47259 | 35912 ft | 479 kts | 337° |
| 2026-04-25 08:30 | -0.66706 | 46.44645 | 35911 ft | 480 kts | 337° |
| 2026-04-25 08:31 | -0.60562 | 46.42029 | 35910 ft | 480 kts | 337° |
| 2026-04-25 08:31 | -0.54452 | 46.39428 | 35910 ft | 480 kts | 337° |
| 2026-04-25 08:32 | -0.48309 | 46.36813 | 35910 ft | 480 kts | 337° |
| 2026-04-25 08:32 | -0.42157 | 46.34194 | 35909 ft | 480 kts | 337° |
| 2026-04-25 08:33 | -0.36008 | 46.31577 | 35908 ft | 480 kts | 337° |
| 2026-04-25 08:33 | -0.29861 | 46.28961 | 35913 ft | 480 kts | 337° |
| 2026-04-25 08:34 | -0.23756 | 46.26364 | 35912 ft | 480 kts | 337° |
| 2026-04-25 08:34 | -0.17614 | 46.23745 | 35915 ft | 480 kts | 337° |
| 2026-04-25 08:35 | -0.11495 | 46.21070 | 35915 ft | 480 kts | 336° |
| 2026-04-25 08:35 | -0.05379 | 46.18373 | 35912 ft | 480 kts | 336° |
| 2026-04-25 08:36 | 0.00736 | 46.15686 | 35912 ft | 480 kts | 336° |
| 2026-04-25 08:36 | 0.06817 | 46.13021 | 35913 ft | 480 kts | 336° |
| 2026-04-25 08:37 | 0.12931 | 46.10343 | 35913 ft | 480 kts | 336° |
| 2026-04-25 08:37 | 0.19058 | 46.07659 | 35913 ft | 480 kts | 336° |
| 2026-04-25 08:38 | 0.25181 | 46.04977 | 35915 ft | 481 kts | 336° |
| 2026-04-25 08:38 | 0.31321 | 46.02287 | 35914 ft | 481 kts | 336° |
| 2026-04-25 08:39 | 0.37457 | 45.99599 | 35911 ft | 481 kts | 336° |
| 2026-04-25 08:39 | 0.43597 | 45.96910 | 35916 ft | 482 kts | 336° |
| 2026-04-25 08:40 | 0.49734 | 45.94223 | 35912 ft | 482 kts | 336° |
| 2026-04-25 08:40 | 0.55840 | 45.91548 | 35915 ft | 482 kts | 336° |
| 2026-04-25 08:41 | 0.61995 | 45.88886 | 35915 ft | 482 kts | 337° |
| 2026-04-25 08:41 | 0.68164 | 45.86242 | 35912 ft | 482 kts | 336° |
| 2026-04-25 08:42 | 0.74333 | 45.83598 | 35909 ft | 482 kts | 336° |
| 2026-04-25 08:42 | 0.80505 | 45.80948 | 35915 ft | 483 kts | 336° |
| 2026-04-25 08:43 | 0.86644 | 45.78311 | 35917 ft | 483 kts | 336° |
| 2026-04-25 08:43 | 0.92841 | 45.75648 | 35916 ft | 484 kts | 336° |
| 2026-04-25 08:44 | 0.99043 | 45.72984 | 35917 ft | 485 kts | 336° |
| 2026-04-25 08:44 | 1.05247 | 45.70318 | 35911 ft | 486 kts | 336° |
| 2026-04-25 08:45 | 1.11470 | 45.67644 | 35913 ft | 487 kts | 336° |
| 2026-04-25 08:45 | 1.17659 | 45.64985 | 35914 ft | 487 kts | 336° |
| 2026-04-25 08:46 | 1.23895 | 45.62305 | 35916 ft | 488 kts | 336° |
| 2026-04-25 08:46 | 1.30147 | 45.59619 | 35912 ft | 488 kts | 337° |
| 2026-04-25 08:47 | 1.36395 | 45.56934 | 35913 ft | 489 kts | 337° |
| 2026-04-25 08:47 | 1.42611 | 45.54263 | 35914 ft | 489 kts | 337° |
| 2026-04-25 08:48 | 1.48868 | 45.51574 | 35911 ft | 490 kts | 337° |
| 2026-04-25 08:48 | 1.55139 | 45.48879 | 35910 ft | 490 kts | 337° |
| 2026-04-25 08:49 | 1.61403 | 45.46187 | 35910 ft | 490 kts | 337° |
| 2026-04-25 08:49 | 1.67642 | 45.43505 | 35913 ft | 490 kts | 337° |
| 2026-04-25 08:50 | 1.73905 | 45.40814 | 35912 ft | 490 kts | 337° |
| 2026-04-25 08:50 | 1.80163 | 45.38124 | 35912 ft | 489 kts | 337° |
| 2026-04-25 08:51 | 1.86413 | 45.35438 | 35911 ft | 488 kts | 337° |
| 2026-04-25 08:51 | 1.92656 | 45.32756 | 35911 ft | 488 kts | 337° |
| 2026-04-25 08:52 | 1.98969 | 45.30298 | 35910 ft | 486 kts | 345° |
| 2026-04-25 08:52 | 2.05606 | 45.28983 | 35916 ft | 485 kts | 355° |
| 2026-04-25 08:53 | 2.12342 | 45.28594 | 35919 ft | 485 kts | 358° |
| 2026-04-25 08:53 | 2.19038 | 45.28304 | 35914 ft | 485 kts | 358° |
| 2026-04-25 08:54 | 2.25781 | 45.27990 | 35913 ft | 485 kts | 358° |
| 2026-04-25 08:54 | 2.32550 | 45.27649 | 35911 ft | 485 kts | 358° |
| 2026-04-25 08:55 | 2.39267 | 45.27301 | 35912 ft | 486 kts | 358° |
| 2026-04-25 08:55 | 2.46033 | 45.26951 | 35912 ft | 486 kts | 358° |
| 2026-04-25 08:56 | 2.52788 | 45.26602 | 35911 ft | 486 kts | 358° |
| 2026-04-25 08:56 | 2.59541 | 45.26254 | 35912 ft | 486 kts | 358° |
| 2026-04-25 08:57 | 2.66298 | 45.25906 | 35910 ft | 486 kts | 358° |
| 2026-04-25 08:57 | 2.73061 | 45.25557 | 35911 ft | 486 kts | 358° |
| 2026-04-25 08:58 | 2.79780 | 45.25211 | 35914 ft | 486 kts | 358° |
| 2026-04-25 08:58 | 2.86548 | 45.24862 | 35912 ft | 486 kts | 358° |
| 2026-04-25 08:59 | 2.93317 | 45.24513 | 35913 ft | 486 kts | 357° |
| 2026-04-25 08:59 | 3.00085 | 45.24164 | 35913 ft | 486 kts | 357° |
| 2026-04-25 09:00 | 3.06808 | 45.23817 | 35912 ft | 486 kts | 357° |
| 2026-04-25 09:00 | 3.13574 | 45.23468 | 35912 ft | 486 kts | 357° |
| 2026-04-25 09:01 | 3.20333 | 45.23120 | 35914 ft | 486 kts | 357° |
| 2026-04-25 09:01 | 3.27046 | 45.22773 | 35912 ft | 485 kts | 357° |
| 2026-04-25 09:02 | 3.33801 | 45.22425 | 35912 ft | 485 kts | 357° |
| 2026-04-25 09:02 | 3.40557 | 45.22076 | 35915 ft | 485 kts | 357° |
| 2026-04-25 09:03 | 3.47269 | 45.21730 | 35915 ft | 485 kts | 357° |
| 2026-04-25 09:03 | 3.54026 | 45.21381 | 35915 ft | 485 kts | 357° |
| 2026-04-25 09:04 | 3.60770 | 45.21033 | 35916 ft | 485 kts | 357° |
| 2026-04-25 09:04 | 3.67521 | 45.20685 | 35912 ft | 485 kts | 357° |
| 2026-04-25 09:05 | 3.73120 | 45.20396 | 35918 ft | 485 kts | 357° |
| 2026-04-25 09:05 | 3.81012 | 45.19989 | 35921 ft | 485 kts | 357° |
| 2026-04-25 09:06 | 3.86620 | 45.19699 | 35917 ft | 485 kts | 357° |
| 2026-04-25 09:06 | 3.93368 | 45.19350 | 35919 ft | 485 kts | 357° |
| 2026-04-25 09:07 | 4.00100 | 45.19003 | 35918 ft | 485 kts | 357° |
| 2026-04-25 09:07 | 4.06799 | 45.18656 | 35922 ft | 485 kts | 357° |
| 2026-04-25 09:08 | 4.13532 | 45.18308 | 35918 ft | 485 kts | 357° |
| 2026-04-25 09:08 | 4.20273 | 45.17960 | 35919 ft | 484 kts | 357° |
| 2026-04-25 09:09 | 4.27011 | 45.17612 | 35918 ft | 484 kts | 357° |
| 2026-04-25 09:09 | 4.33740 | 45.17264 | 35918 ft | 484 kts | 357° |
| 2026-04-25 09:10 | 4.40472 | 45.16916 | 35918 ft | 484 kts | 357° |
| 2026-04-25 09:10 | 4.47195 | 45.16568 | 35918 ft | 484 kts | 357° |
| 2026-04-25 09:11 | 4.57246 | 45.16049 | 35918 ft | 483 kts | 357° |
| 2026-04-25 09:11 | 4.63971 | 45.15701 | 35922 ft | 483 kts | 357° |
| 2026-04-25 09:12 | 4.70682 | 45.15354 | 35921 ft | 483 kts | 357° |
| 2026-04-25 09:12 | 4.77400 | 45.15006 | 35921 ft | 483 kts | 357° |
| 2026-04-25 09:13 | 4.84058 | 45.14663 | 35923 ft | 482 kts | 357° |
| 2026-04-25 09:13 | 4.90773 | 45.14316 | 35920 ft | 482 kts | 357° |
| 2026-04-25 09:14 | 4.97457 | 45.13972 | 35919 ft | 482 kts | 357° |
| 2026-04-25 09:14 | 5.04150 | 45.13627 | 35922 ft | 481 kts | 357° |
| 2026-04-25 09:15 | 5.10813 | 45.12940 | 35922 ft | 481 kts | 348° |
| 2026-04-25 09:15 | 5.17325 | 45.11383 | 35924 ft | 481 kts | 346° |
| 2026-04-25 09:16 | 5.23786 | 45.09777 | 35920 ft | 481 kts | 346° |
| 2026-04-25 09:16 | 5.30288 | 45.08192 | 35920 ft | 480 kts | 347° |
| 2026-04-25 09:17 | 5.40047 | 45.05850 | 35923 ft | 480 kts | 347° |
| 2026-04-25 09:18 | 5.46535 | 45.04297 | 35919 ft | 479 kts | 347° |
| 2026-04-25 09:18 | 5.52982 | 45.02752 | 35922 ft | 479 kts | 347° |
| 2026-04-25 09:19 | 5.59458 | 45.01199 | 35919 ft | 478 kts | 347° |
| 2026-04-25 09:19 | 5.65937 | 44.99645 | 35919 ft | 478 kts | 347° |
| 2026-04-25 09:20 | 5.72405 | 44.98093 | 35921 ft | 477 kts | 347° |
| 2026-04-25 09:20 | 5.78874 | 44.96540 | 35923 ft | 477 kts | 347° |
| 2026-04-25 09:21 | 5.85290 | 44.94999 | 35927 ft | 477 kts | 347° |
| 2026-04-25 09:21 | 5.91750 | 44.93448 | 35928 ft | 477 kts | 347° |
| 2026-04-25 09:22 | 5.98206 | 44.91898 | 35923 ft | 477 kts | 347° |
| 2026-04-25 09:22 | 6.04671 | 44.90345 | 35931 ft | 477 kts | 347° |
| 2026-04-25 09:23 | 6.11130 | 44.88793 | 35932 ft | 477 kts | 347° |
| 2026-04-25 09:23 | 6.17554 | 44.87249 | 35935 ft | 477 kts | 347° |
| 2026-04-25 09:24 | 6.24023 | 44.85693 | 35937 ft | 477 kts | 347° |
| 2026-04-25 09:24 | 6.30490 | 44.84139 | 35941 ft | 477 kts | 347° |
| 2026-04-25 09:25 | 6.36952 | 44.82584 | 35940 ft | 477 kts | 347° |
| 2026-04-25 09:25 | 6.43417 | 44.81029 | 35941 ft | 477 kts | 347° |
| 2026-04-25 09:26 | 6.49831 | 44.79486 | 35940 ft | 477 kts | 347° |
| 2026-04-25 09:26 | 6.56289 | 44.77932 | 35944 ft | 477 kts | 347° |
| 2026-04-25 09:27 | 6.62749 | 44.76378 | 35943 ft | 477 kts | 347° |
| 2026-04-25 09:27 | 6.69223 | 44.74821 | 35945 ft | 477 kts | 347° |
| 2026-04-25 09:28 | 6.75648 | 44.73279 | 35946 ft | 477 kts | 347° |
| 2026-04-25 09:28 | 6.82103 | 44.71744 | 35945 ft | 476 kts | 347° |
| 2026-04-25 09:29 | 6.88576 | 44.70209 | 35949 ft | 476 kts | 347° |
| 2026-04-25 09:29 | 6.94989 | 44.68687 | 35948 ft | 475 kts | 347° |
| 2026-04-25 09:30 | 7.01436 | 44.67155 | 35947 ft | 475 kts | 347° |
| 2026-04-25 09:30 | 7.07866 | 44.65627 | 35945 ft | 474 kts | 347° |
| 2026-04-25 09:31 | 7.14282 | 44.64102 | 35948 ft | 473 kts | 347° |
| 2026-04-25 09:31 | 7.20696 | 44.62577 | 35951 ft | 473 kts | 347° |
| 2026-04-25 09:32 | 7.27065 | 44.61062 | 35950 ft | 472 kts | 347° |
| 2026-04-25 09:32 | 7.33467 | 44.59539 | 35949 ft | 472 kts | 347° |
| 2026-04-25 09:33 | 7.39865 | 44.58016 | 35944 ft | 472 kts | 347° |
| 2026-04-25 09:33 | 7.46253 | 44.56496 | 35947 ft | 472 kts | 347° |
| 2026-04-25 09:34 | 7.52653 | 44.54972 | 35942 ft | 472 kts | 347° |
| 2026-04-25 09:34 | 7.59053 | 44.53448 | 35945 ft | 473 kts | 347° |
| 2026-04-25 09:35 | 7.65421 | 44.51930 | 35942 ft | 473 kts | 347° |
| 2026-04-25 09:35 | 7.71830 | 44.50402 | 35941 ft | 473 kts | 347° |
| 2026-04-25 09:36 | 7.78245 | 44.48873 | 35940 ft | 474 kts | 347° |
| 2026-04-25 09:36 | 7.84677 | 44.47339 | 35942 ft | 474 kts | 347° |
| 2026-04-25 09:37 | 7.91106 | 44.45805 | 35939 ft | 474 kts | 347° |
| 2026-04-25 09:37 | 7.97493 | 44.44280 | 35933 ft | 474 kts | 347° |
| 2026-04-25 09:38 | 8.03933 | 44.42743 | 35933 ft | 474 kts | 347° |
| 2026-04-25 09:38 | 8.10330 | 44.41215 | 35932 ft | 474 kts | 347° |
| 2026-04-25 09:39 | 8.16741 | 44.39684 | 35931 ft | 474 kts | 347° |
| 2026-04-25 09:39 | 8.23178 | 44.38146 | 35934 ft | 474 kts | 347° |
| 2026-04-25 09:40 | 8.32777 | 44.35851 | 35929 ft | 474 kts | 347° |
| 2026-04-25 09:40 | 8.39210 | 44.34312 | 35926 ft | 474 kts | 347° |
| 2026-04-25 09:41 | 8.45625 | 44.32778 | 35933 ft | 474 kts | 347° |
| 2026-04-25 09:41 | 8.52017 | 44.31249 | 35937 ft | 474 kts | 347° |
| 2026-04-25 09:42 | 8.58440 | 44.29711 | 35934 ft | 474 kts | 347° |
| 2026-04-25 09:42 | 8.64834 | 44.28168 | 35984 ft | 475 kts | 345° |
| 2026-04-25 09:43 | 8.67970 | 44.27149 | 36210 ft | 475 kts | 339° |
| 2026-04-25 09:43 | 8.71044 | 44.25912 | 36486 ft | 473 kts | 338° |
| 2026-04-25 09:43 | 8.74092 | 44.24660 | 36744 ft | 471 kts | 338° |
| 2026-04-25 09:43 | 8.77094 | 44.23422 | 36973 ft | 470 kts | 338° |
| 2026-04-25 09:44 | 8.80127 | 44.22178 | 37178 ft | 470 kts | 338° |
| 2026-04-25 09:44 | 8.83157 | 44.20944 | 37342 ft | 470 kts | 338° |
| 2026-04-25 09:44 | 8.86200 | 44.19712 | 37546 ft | 469 kts | 339° |
| 2026-04-25 09:44 | 8.89232 | 44.18490 | 37726 ft | 469 kts | 339° |
| 2026-04-25 09:45 | 8.92269 | 44.17268 | 37851 ft | 469 kts | 339° |
| 2026-04-25 09:45 | 8.95306 | 44.16048 | 37893 ft | 470 kts | 339° |
| 2026-04-25 09:45 | 9.01393 | 44.13601 | 37927 ft | 470 kts | 338° |
| 2026-04-25 09:46 | 9.07419 | 44.11177 | 37933 ft | 468 kts | 338° |
| 2026-04-25 09:46 | 9.13470 | 44.08741 | 37934 ft | 467 kts | 338° |
| 2026-04-25 09:47 | 9.19508 | 44.06309 | 37936 ft | 466 kts | 338° |
| 2026-04-25 09:47 | 9.25531 | 44.03882 | 37934 ft | 466 kts | 338° |
| 2026-04-25 09:48 | 9.31523 | 44.01467 | 37940 ft | 466 kts | 338° |
| 2026-04-25 09:48 | 9.37556 | 43.99035 | 37939 ft | 466 kts | 338° |
| 2026-04-25 09:49 | 9.43592 | 43.96601 | 37936 ft | 467 kts | 338° |
| 2026-04-25 09:49 | 9.49635 | 43.94162 | 37943 ft | 467 kts | 338° |
| 2026-04-25 09:50 | 9.55654 | 43.91732 | 37944 ft | 468 kts | 338° |
| 2026-04-25 09:50 | 9.61710 | 43.89287 | 37942 ft | 468 kts | 338° |
| 2026-04-25 09:51 | 9.67775 | 43.86837 | 37946 ft | 469 kts | 338° |
| 2026-04-25 09:51 | 9.73839 | 43.84387 | 37945 ft | 469 kts | 338° |
| 2026-04-25 09:52 | 9.79911 | 43.81931 | 37947 ft | 469 kts | 338° |
| 2026-04-25 09:52 | 9.85982 | 43.79476 | 37949 ft | 469 kts | 338° |
| 2026-04-25 09:53 | 9.92013 | 43.77036 | 37945 ft | 469 kts | 338° |
| 2026-04-25 09:53 | 9.98088 | 43.74577 | 37942 ft | 469 kts | 338° |
| 2026-04-25 09:54 | 10.04149 | 43.72123 | 37943 ft | 468 kts | 338° |
| 2026-04-25 09:54 | 10.10212 | 43.69667 | 37940 ft | 468 kts | 338° |
| 2026-04-25 09:55 | 10.15240 | 43.67629 | 37929 ft | 468 kts | 338° |
| 2026-04-25 09:55 | 10.22298 | 43.64768 | 37931 ft | 467 kts | 338° |
| 2026-04-25 09:56 | 10.28301 | 43.62333 | 37925 ft | 467 kts | 338° |
| 2026-04-25 09:56 | 10.34344 | 43.59882 | 37926 ft | 467 kts | 338° |
| 2026-04-25 09:57 | 10.39360 | 43.57846 | 37914 ft | 467 kts | 338° |
| 2026-04-25 09:57 | 10.45399 | 43.55393 | 37910 ft | 467 kts | 338° |
| 2026-04-25 09:58 | 10.51439 | 43.52940 | 37910 ft | 468 kts | 338° |
| 2026-04-25 09:58 | 10.57495 | 43.50478 | 37902 ft | 468 kts | 338° |
| 2026-04-25 09:59 | 10.63557 | 43.48014 | 37897 ft | 468 kts | 338° |
| 2026-04-25 09:59 | 10.69571 | 43.45568 | 37901 ft | 469 kts | 338° |
| 2026-04-25 10:00 | 10.75625 | 43.43104 | 37895 ft | 469 kts | 338° |
| 2026-04-25 10:00 | 10.81688 | 43.40636 | 37891 ft | 469 kts | 338° |
| 2026-04-25 10:01 | 10.87757 | 43.38165 | 37891 ft | 469 kts | 338° |
| 2026-04-25 10:01 | 10.93830 | 43.35691 | 37898 ft | 469 kts | 338° |
| 2026-04-25 10:02 | 10.99850 | 43.33237 | 37897 ft | 469 kts | 338° |
| 2026-04-25 10:02 | 11.05909 | 43.30766 | 37898 ft | 469 kts | 338° |
| 2026-04-25 10:03 | 11.11979 | 43.28290 | 37896 ft | 468 kts | 338° |
| 2026-04-25 10:03 | 11.17993 | 43.25836 | 37899 ft | 468 kts | 338° |
| 2026-04-25 10:04 | 11.24042 | 43.23367 | 37901 ft | 468 kts | 338° |
| 2026-04-25 10:04 | 11.30084 | 43.20901 | 37896 ft | 467 kts | 338° |
| 2026-04-25 10:05 | 11.36119 | 43.18432 | 37906 ft | 467 kts | 337° |
| 2026-04-25 10:05 | 11.42048 | 43.15667 | 37904 ft | 467 kts | 334° |
| 2026-04-25 10:06 | 11.47910 | 43.12778 | 37909 ft | 468 kts | 334° |
| 2026-04-25 10:06 | 11.53761 | 43.09968 | 37906 ft | 468 kts | 336° |
| 2026-04-25 10:07 | 11.59941 | 43.07834 | 37914 ft | 469 kts | 343° |
| 2026-04-25 10:07 | 11.66232 | 43.06043 | 37905 ft | 469 kts | 343° |
| 2026-04-25 10:08 | 11.72496 | 43.04253 | 37910 ft | 469 kts | 343° |
| 2026-04-25 10:08 | 11.78778 | 43.02431 | 37905 ft | 469 kts | 343° |
| 2026-04-25 10:09 | 11.85047 | 43.00601 | 37912 ft | 468 kts | 343° |
| 2026-04-25 10:09 | 11.91319 | 42.98768 | 37916 ft | 468 kts | 343° |
| 2026-04-25 10:10 | 11.97590 | 42.96935 | 37918 ft | 468 kts | 343° |
| 2026-04-25 10:10 | 12.03815 | 42.95117 | 37914 ft | 467 kts | 343° |
| 2026-04-25 10:11 | 12.10065 | 42.93289 | 37914 ft | 467 kts | 342° |
| 2026-04-25 10:11 | 12.16317 | 42.91461 | 37911 ft | 467 kts | 342° |
| 2026-04-25 10:12 | 12.22568 | 42.89631 | 37908 ft | 466 kts | 342° |
| 2026-04-25 10:13 | 12.31893 | 42.86901 | 37898 ft | 467 kts | 342° |
| 2026-04-25 10:13 | 12.38151 | 42.85067 | 37889 ft | 466 kts | 342° |
| 2026-04-25 10:14 | 12.44388 | 42.83240 | 37889 ft | 466 kts | 342° |
| 2026-04-25 10:14 | 12.50634 | 42.81409 | 37878 ft | 466 kts | 342° |
| 2026-04-25 10:15 | 12.56833 | 42.79591 | 37869 ft | 465 kts | 342° |
| 2026-04-25 10:15 | 12.63049 | 42.77700 | 37869 ft | 465 kts | 341° |
| 2026-04-25 10:16 | 12.69205 | 42.75651 | 37865 ft | 465 kts | 340° |
| 2026-04-25 10:16 | 12.75351 | 42.73599 | 37865 ft | 465 kts | 340° |
| 2026-04-25 10:17 | 12.81482 | 42.71579 | 37856 ft | 465 kts | 340° |
| 2026-04-25 10:17 | 12.87647 | 42.69556 | 37853 ft | 464 kts | 340° |
| 2026-04-25 10:18 | 12.93802 | 42.67536 | 37852 ft | 464 kts | 340° |
| 2026-04-25 10:18 | 12.99958 | 42.65514 | 37849 ft | 464 kts | 340° |
| 2026-04-25 10:19 | 13.06115 | 42.63489 | 37848 ft | 464 kts | 340° |
| 2026-04-25 10:19 | 13.12168 | 42.61310 | 37854 ft | 464 kts | 338° |
| 2026-04-25 10:20 | 13.18190 | 42.58928 | 37844 ft | 464 kts | 337° |
| 2026-04-25 10:20 | 13.24235 | 42.56551 | 37846 ft | 463 kts | 337° |
| 2026-04-25 10:21 | 13.30236 | 42.54227 | 37840 ft | 463 kts | 338° |
| 2026-04-25 10:21 | 13.36272 | 42.51903 | 37840 ft | 463 kts | 338° |
| 2026-04-25 10:22 | 13.42266 | 42.49594 | 37839 ft | 462 kts | 338° |
| 2026-04-25 10:22 | 13.48289 | 42.47272 | 37838 ft | 462 kts | 338° |
| 2026-04-25 10:23 | 13.54274 | 42.44962 | 37837 ft | 462 kts | 337° |
| 2026-04-25 10:23 | 13.60297 | 42.42636 | 37839 ft | 462 kts | 337° |
| 2026-04-25 10:24 | 13.66319 | 42.40310 | 37838 ft | 462 kts | 337° |
| 2026-04-25 10:24 | 13.72347 | 42.37980 | 37836 ft | 462 kts | 337° |
| 2026-04-25 10:25 | 13.78355 | 42.35657 | 37835 ft | 462 kts | 337° |
| 2026-04-25 10:25 | 13.84345 | 42.33341 | 37832 ft | 462 kts | 337° |
| 2026-04-25 10:26 | 13.90350 | 42.30992 | 37827 ft | 462 kts | 336° |
| 2026-04-25 10:26 | 13.96329 | 42.28565 | 37836 ft | 461 kts | 336° |
| 2026-04-25 10:27 | 14.02303 | 42.26129 | 37831 ft | 462 kts | 336° |
| 2026-04-25 10:27 | 14.08279 | 42.23703 | 37826 ft | 462 kts | 336° |
| 2026-04-25 10:28 | 14.14265 | 42.21277 | 37827 ft | 462 kts | 336° |
| 2026-04-25 10:28 | 14.20249 | 42.18853 | 37839 ft | 462 kts | 336° |
| 2026-04-25 10:29 | 14.26209 | 42.16438 | 37833 ft | 462 kts | 336° |
| 2026-04-25 10:29 | 14.32202 | 42.14006 | 37827 ft | 462 kts | 336° |
| 2026-04-25 10:30 | 14.38196 | 42.11573 | 37828 ft | 462 kts | 336° |
| 2026-04-25 10:30 | 14.44148 | 42.09156 | 37830 ft | 462 kts | 335° |
| 2026-04-25 10:31 | 14.50128 | 42.06726 | 37830 ft | 462 kts | 335° |
| 2026-04-25 10:31 | 14.56116 | 42.04291 | 37829 ft | 462 kts | 335° |
| 2026-04-25 10:32 | 14.62101 | 42.01856 | 37831 ft | 461 kts | 335° |
| 2026-04-25 10:32 | 14.68042 | 41.99438 | 37819 ft | 461 kts | 335° |
| 2026-04-25 10:33 | 14.74011 | 41.97007 | 37822 ft | 461 kts | 335° |
| 2026-04-25 10:33 | 14.79984 | 41.94574 | 37830 ft | 461 kts | 335° |
| 2026-04-25 10:34 | 14.85953 | 41.92142 | 37821 ft | 461 kts | 335° |
| 2026-04-25 10:34 | 14.91939 | 41.89725 | 37825 ft | 461 kts | 337° |
| 2026-04-25 10:35 | 14.98069 | 41.87738 | 37830 ft | 462 kts | 340° |
| 2026-04-25 10:35 | 15.04206 | 41.85850 | 37823 ft | 462 kts | 340° |
| 2026-04-25 10:36 | 15.10371 | 41.83938 | 37820 ft | 462 kts | 339° |
| 2026-04-25 10:36 | 15.16526 | 41.82012 | 37829 ft | 462 kts | 339° |
| 2026-04-25 10:37 | 15.63653 | 41.64607 | 37846 ft | 458 kts | 335° |
| 2026-04-25 10:37 | 16.11439 | 41.45899 | 37841 ft | 458 kts | 335° |
| 2026-04-25 10:38 | 16.59151 | 41.27083 | 37834 ft | 459 kts | 334° |
| 2026-04-25 10:38 | 17.06815 | 41.08202 | 37853 ft | 460 kts | 336° |
| 2026-04-25 10:39 | 17.54616 | 40.89132 | 37855 ft | 461 kts | 335° |
| 2026-04-25 10:39 | 18.02468 | 40.69753 | 37837 ft | 461 kts | 334° |
| 2026-04-25 10:40 | 18.50427 | 40.50079 | 37844 ft | 463 kts | 334° |
| 2026-04-25 10:40 | 18.98139 | 40.30387 | 37857 ft | 464 kts | 334° |
| 2026-04-25 10:41 | 19.46392 | 40.10350 | 37847 ft | 466 kts | 333° |
| 2026-04-25 10:41 | 19.53270 | 40.07482 | 37844 ft | 466 kts | 333° |
| 2026-04-25 10:42 | 19.59291 | 40.04969 | 37697 ft | 461 kts | 332° |
| 2026-04-25 10:42 | 19.62275 | 40.03715 | 37344 ft | 462 kts | 333° |
| 2026-04-25 10:42 | 19.65229 | 40.02391 | 36779 ft | 457 kts | 326° |
| 2026-04-25 10:42 | 19.68134 | 40.00967 | 35813 ft | 463 kts | 329° |
| 2026-04-25 10:43 | 19.71172 | 39.99756 | 34833 ft | 471 kts | 333° |
| 2026-04-25 10:43 | 19.74224 | 39.98570 | 33995 ft | 473 kts | 330° |
| 2026-04-25 10:43 | 19.77272 | 39.97241 | 32969 ft | 473 kts | 329° |
| 2026-04-25 10:43 | 19.80322 | 39.95857 | 31812 ft | 482 kts | 330° |
| 2026-04-25 10:44 | 19.83419 | 39.94457 | 30843 ft | 485 kts | 330° |
| 2026-04-25 10:44 | 19.86534 | 39.93068 | 30019 ft | 485 kts | 330° |
| 2026-04-25 10:44 | 19.89649 | 39.91704 | 29328 ft | 480 kts | 331° |
| 2026-04-25 10:44 | 19.92742 | 39.90369 | 28758 ft | 474 kts | 331° |
| 2026-04-25 10:45 | 19.95773 | 39.89070 | 28192 ft | 469 kts | 331° |
| 2026-04-25 10:45 | 19.98797 | 39.87773 | 27586 ft | 465 kts | 331° |
| 2026-04-25 10:45 | 20.00785 | 39.86918 | 27186 ft | 464 kts | 331° |
| 2026-04-25 10:45 | 20.04734 | 39.85217 | 26427 ft | 460 kts | 331° |
| 2026-04-25 10:46 | 20.07687 | 39.83944 | 25870 ft | 457 kts | 331° |
| 2026-04-25 10:46 | 20.09640 | 39.83102 | 25505 ft | 455 kts | 331° |
| 2026-04-25 10:46 | 20.12570 | 39.81836 | 24978 ft | 453 kts | 331° |
| 2026-04-25 10:46 | 20.15488 | 39.80573 | 24459 ft | 450 kts | 331° |
| 2026-04-25 10:47 | 20.18382 | 39.79318 | 23939 ft | 448 kts | 331° |
| 2026-04-25 10:47 | 20.32713 | 39.73074 | 21147 ft | 438 kts | 331° |
| 2026-04-25 10:47 | 20.41745 | 39.69147 | 19175 ft | 440 kts | 333° |
| 2026-04-25 10:47 | 20.44544 | 39.67958 | 18441 ft | 428 kts | 333° |
| 2026-04-25 10:48 | 20.47326 | 39.66771 | 17745 ft | 435 kts | 334° |
| 2026-04-25 10:48 | 20.50116 | 39.65574 | 17030 ft | 426 kts | 334° |
| 2026-04-25 10:48 | 20.52813 | 39.64412 | 16393 ft | 413 kts | 333° |
| 2026-04-25 10:48 | 20.55457 | 39.63265 | 15776 ft | 407 kts | 334° |
| 2026-04-25 10:49 | 20.58025 | 39.62146 | 15175 ft | 402 kts | 334° |
| 2026-04-25 10:49 | 20.60574 | 39.61034 | 14589 ft | 399 kts | 334° |
| 2026-04-25 10:49 | 20.63133 | 39.59923 | 14033 ft | 395 kts | 334° |
| 2026-04-25 10:49 | 20.65662 | 39.58825 | 13487 ft | 393 kts | 334° |
| 2026-04-25 10:50 | 20.68236 | 39.57707 | 12889 ft | 404 kts | 335° |
| 2026-04-25 10:50 | 20.70824 | 39.56595 | 12234 ft | 393 kts | 335° |
| 2026-04-25 10:50 | 20.73338 | 39.55509 | 11660 ft | 393 kts | 335° |
| 2026-04-25 10:50 | 20.75882 | 39.54400 | 11162 ft | 390 kts | 335° |
| 2026-04-25 10:51 | 20.78341 | 39.53339 | 11011 ft | 372 kts | 337° |
| 2026-04-25 10:51 | 20.80759 | 39.52509 | 10826 ft | 358 kts | 342° |
| 2026-04-25 10:51 | 20.83123 | 39.51870 | 10679 ft | 339 kts | 343° |
| 2026-04-25 10:51 | 20.85322 | 39.51316 | 10523 ft | 311 kts | 344° |
| 2026-04-25 10:52 | 20.87342 | 39.50805 | 10344 ft | 288 kts | 343° |
| 2026-04-25 10:52 | 20.89328 | 39.50288 | 9855 ft | 302 kts | 343° |
| 2026-04-25 10:52 | 20.91436 | 39.49735 | 9397 ft | 316 kts | 344° |
| 2026-04-25 10:52 | 20.93569 | 39.49170 | 9257 ft | 316 kts | 343° |
| 2026-04-25 10:53 | 20.95691 | 39.48592 | 8948 ft | 323 kts | 343° |
| 2026-04-25 10:53 | 20.97928 | 39.47976 | 8647 ft | 329 kts | 343° |
| 2026-04-25 10:53 | 21.00114 | 39.47377 | 8525 ft | 329 kts | 343° |
| 2026-04-25 10:53 | 21.02354 | 39.46758 | 8424 ft | 333 kts | 343° |
| 2026-04-25 10:54 | 21.04630 | 39.46135 | 8382 ft | 340 kts | 344° |
| 2026-04-25 10:54 | 21.06156 | 39.45722 | 8248 ft | 342 kts | 344° |
| 2026-04-25 10:54 | 21.09241 | 39.44892 | 7875 ft | 340 kts | 344° |
| 2026-04-25 10:54 | 21.11527 | 39.44280 | 7636 ft | 335 kts | 344° |
| 2026-04-25 10:55 | 21.13771 | 39.43681 | 7379 ft | 331 kts | 344° |
| 2026-04-25 10:55 | 21.16008 | 39.43082 | 7065 ft | 330 kts | 344° |
| 2026-04-25 10:55 | 21.18231 | 39.42481 | 6754 ft | 329 kts | 343° |
| 2026-04-25 10:55 | 21.20420 | 39.41886 | 6457 ft | 327 kts | 343° |
| 2026-04-25 10:56 | 21.22574 | 39.41134 | 6176 ft | 323 kts | 329° |
| 2026-04-25 10:56 | 21.24290 | 39.39675 | 5833 ft | 310 kts | 310° |
| 2026-04-25 10:56 | 21.25768 | 39.38033 | 5491 ft | 304 kts | 311° |
| 2026-04-25 10:56 | 21.27241 | 39.36459 | 5149 ft | 295 kts | 311° |
| 2026-04-25 10:57 | 21.28768 | 39.35047 | 4766 ft | 286 kts | 324° |
| 2026-04-25 10:57 | 21.30456 | 39.34032 | 4437 ft | 270 kts | 329° |
| 2026-04-25 10:57 | 21.32122 | 39.33141 | 4137 ft | 264 kts | 330° |
| 2026-04-25 10:57 | 21.33739 | 39.32276 | 3894 ft | 253 kts | 329° |
| 2026-04-25 10:58 | 21.35306 | 39.31407 | 3762 ft | 256 kts | 328° |
| 2026-04-25 10:58 | 21.36880 | 39.30513 | 3576 ft | 256 kts | 328° |
| 2026-04-25 10:58 | 21.38421 | 39.29628 | 3367 ft | 251 kts | 328° |
| 2026-04-25 10:58 | 21.39949 | 39.28754 | 3191 ft | 249 kts | 329° |
| 2026-04-25 10:59 | 21.41531 | 39.27976 | 3084 ft | 251 kts | 333° |
| 2026-04-25 10:59 | 21.43162 | 39.27289 | 3056 ft | 253 kts | 335° |
| 2026-04-25 10:59 | 21.44825 | 39.26638 | 3006 ft | 253 kts | 336° |
| 2026-04-25 10:59 | 21.46463 | 39.26002 | 3077 ft | 250 kts | 335° |
| 2026-04-25 11:00 | 21.48103 | 39.25356 | 3003 ft | 250 kts | 335° |
| 2026-04-25 11:00 | 21.49702 | 39.24726 | 3010 ft | 249 kts | 336° |
| 2026-04-25 11:00 | 21.51325 | 39.24087 | 3002 ft | 247 kts | 336° |
| 2026-04-25 11:00 | 21.52944 | 39.23450 | 2780 ft | 251 kts | 336° |
| 2026-04-25 11:01 | 21.54556 | 39.22776 | 2468 ft | 240 kts | 323° |
| 2026-04-25 11:01 | 21.55736 | 39.21683 | 2202 ft | 214 kts | 304° |
| 2026-04-25 11:01 | 21.56631 | 39.20479 | 1849 ft | 204 kts | 297° |
| 2026-04-25 11:01 | 21.57424 | 39.19275 | 1529 ft | 186 kts | 298° |
| 2026-04-25 11:02 | 21.58428 | 39.18445 | 1511 ft | 185 kts | 326° |
| 2026-04-25 11:02 | 21.59515 | 39.17686 | 1558 ft | 186 kts | 308° |
| 2026-04-25 11:02 | 21.60512 | 39.16811 | 1290 ft | 183 kts | 310° |
| 2026-04-25 11:02 | 21.61575 | 39.16141 | 1099 ft | 169 kts | 323° |
| 2026-04-25 11:03 | 21.62675 | 39.15693 | 905 ft | 164 kts | 329° |
| 2026-04-25 11:03 | 21.63705 | 39.15278 | 714 ft | 152 kts | 323° |
| 2026-04-25 11:03 | 21.64749 | 39.14936 | 674 ft | 166 kts | 330° |
| 2026-04-25 11:03 | 21.65785 | 39.14493 | 366 ft | 159 kts | 327° |
| 2026-04-25 11:04 | 21.66864 | 39.14045 | 99 ft | 163 kts | 324° |
| 2026-04-25 11:04 | 21.67809 | 39.13656 | 31 ft | 128 kts | 338° |
| 2026-04-25 11:04 | 21.68499 | 39.13389 | 27 ft | 83 kts | 340° |
| 2026-04-25 11:04 | 21.68796 | 39.13271 | 27 ft | 54 kts | 340° |
| 2026-04-25 11:05 | 21.69089 | 39.13188 | 28 ft | 30 kts | 0° |
| 2026-04-25 11:05 | 21.69251 | 39.13206 | 27 ft | 13 kts | 9° |
| 2026-04-25 11:05 | 21.69268 | 39.13209 | 27 ft | 0 kts | 10° |
| 2026-04-25 11:10 | 21.69348 | 39.13225 | 28 ft | 16 kts | 9° |
| 2026-04-25 11:10 | 21.69443 | 39.13228 | 28 ft | 3 kts | 349° |
| 2026-04-25 11:11 | 21.69533 | 39.13197 | 28 ft | 16 kts | 340° |
| 2026-04-25 11:11 | 21.69629 | 39.13159 | 28 ft | 16 kts | 340° |
| 2026-04-25 11:11 | 21.69719 | 39.13124 | 28 ft | 3 kts | 340° |
| 2026-04-25 11:11 | 21.69782 | 39.13128 | 28 ft | 15 kts | 38° |
| 2026-04-25 11:12 | 21.69818 | 39.13221 | 28 ft | 16 kts | 73° |
| 2026-04-25 11:12 | 21.69807 | 39.13317 | 29 ft | 5 kts | 135° |
| 2026-04-25 11:12 | 21.69718 | 39.13364 | 29 ft | 16 kts | 159° |
| 2026-04-25 11:12 | 21.69642 | 39.13394 | 29 ft | 16 kts | 160° |
| 2026-04-25 11:13 | 21.69547 | 39.13431 | 29 ft | 7 kts | 160° |
| 2026-04-25 11:13 | 21.69481 | 39.13457 | 29 ft | 4 kts | 166° |
| 2026-04-25 11:13 | 21.69414 | 39.13415 | 29 ft | 9 kts | 242° |
| 2026-04-25 11:13 | 21.69373 | 39.13369 | 28 ft | 5 kts | 193° |
| 2026-04-25 11:14 | 21.69281 | 39.13391 | 28 ft | 16 kts | 160° |
| 2026-04-25 11:14 | 21.69179 | 39.13431 | 28 ft | 16 kts | 160° |
| 2026-04-25 11:14 | 21.69077 | 39.13471 | 28 ft | 15 kts | 160° |
| 2026-04-25 11:14 | 21.68975 | 39.13511 | 28 ft | 16 kts | 160° |
| 2026-04-25 11:15 | 21.68873 | 39.13552 | 28 ft | 16 kts | 160° |
| 2026-04-25 11:15 | 21.68771 | 39.13592 | 28 ft | 16 kts | 160° |
| 2026-04-25 11:15 | 21.68669 | 39.13632 | 28 ft | 16 kts | 160° |